createdAt,value
2023-05-08T00:01:45.201Z,76.16
2023-05-08T00:04:13.423Z,78.16
2023-05-08T00:06:41.383Z,76.77
2023-05-08T00:09:09.826Z,76.42
2023-05-08T00:11:37.568Z,77.19
2023-05-08T00:14:05.805Z,76.78
2023-05-08T00:16:33.915Z,77.59
2023-05-08T00:19:03.137Z,77.98
2023-05-08T00:21:31.117Z,79.48
2023-05-08T00:23:58.833Z,77.55
2023-05-08T00:26:26.664Z,77.32
2023-05-08T00:28:54.406Z,77.74
2023-05-08T00:31:22.266Z,78.20
2023-05-08T00:33:49.991Z,78.39
2023-05-08T00:36:20.876Z,77.66
2023-05-08T00:38:48.620Z,77.94
2023-05-08T00:41:16.426Z,78.13
2023-05-08T00:43:44.246Z,78.15
2023-05-08T00:46:12.656Z,78.21
2023-05-08T00:48:43.721Z,78.37
2023-05-08T00:51:11.789Z,78.57
2023-05-08T00:53:42.892Z,78.44
2023-05-08T00:56:12.660Z,78.48
2023-05-08T00:58:40.937Z,78.42
2023-05-08T01:01:08.996Z,78.71
2023-05-08T01:03:37.733Z,78.73
2023-05-08T01:06:06.747Z,77.76
2023-05-08T01:08:34.685Z,78.10
2023-05-08T01:11:10.526Z,78.28
2023-05-08T01:13:48.500Z,78.44
2023-05-08T01:16:18.070Z,78.86
2023-05-08T01:18:50.734Z,78.84
2023-05-08T01:21:24.488Z,79.15
2023-05-08T01:24:12.130Z,78.87
2023-05-08T01:27:10.410Z,79.34
2023-05-08T01:29:49.599Z,79.57
2023-05-08T01:32:20.957Z,79.86
2023-05-08T01:34:57.039Z,79.53
2023-05-08T01:37:31.472Z,79.65
2023-05-08T01:40:06.263Z,79.52
2023-05-08T01:42:45.925Z,79.34
2023-05-08T01:45:15.510Z,79.48
2023-05-08T01:47:46.369Z,79.46
2023-05-08T01:50:19.212Z,79.79
2023-05-08T01:52:50.999Z,79.66
2023-05-08T01:55:22.298Z,80.44
2023-05-08T01:57:52.753Z,80.59
2023-05-08T02:00:22.706Z,80.33
2023-05-08T02:02:52.627Z,80.49
2023-05-08T02:05:22.574Z,80.06
2023-05-08T02:07:50.913Z,80.34
2023-05-08T02:10:18.745Z,80.30
2023-05-08T02:12:47.439Z,80.62
2023-05-08T02:15:17.545Z,80.02
2023-05-08T02:17:47.421Z,79.74
2023-05-08T02:20:17.147Z,79.74
2023-05-08T02:22:45.917Z,79.96
2023-05-08T02:25:14.964Z,79.73
2023-05-08T02:27:45.553Z,79.40
2023-05-08T02:30:15.736Z,79.46
2023-05-08T02:32:44.625Z,79.46
2023-05-08T02:35:14.221Z,79.80
2023-05-08T02:37:44.215Z,79.14
2023-05-08T02:40:13.283Z,79.18
2023-05-08T02:42:41.423Z,79.40
2023-05-08T02:45:12.141Z,79.21
2023-05-08T02:47:45.036Z,79.23
2023-05-08T02:50:17.892Z,79.25
2023-05-08T02:52:53.050Z,79.13
2023-05-08T02:55:31.673Z,79.42
2023-05-08T02:58:06.415Z,79.30
2023-05-08T03:00:39.192Z,79.25
2023-05-08T03:03:11.792Z,78.63
2023-05-08T03:05:41.085Z,78.84
2023-05-08T03:08:12.234Z,79.45
2023-05-08T03:10:40.675Z,79.13
2023-05-08T03:13:09.365Z,78.48
2023-05-08T03:15:39.566Z,79.17
2023-05-08T03:18:09.858Z,78.47
2023-05-08T03:20:40.714Z,78.75
2023-05-08T03:23:11.804Z,79.05
2023-05-08T03:25:41.459Z,78.82
2023-05-08T03:28:09.427Z,78.58
2023-05-08T03:30:38.587Z,78.56
2023-05-08T03:33:07.476Z,79.30
2023-05-08T03:35:36.480Z,78.57
2023-05-08T03:38:04.550Z,79.02
2023-05-08T03:40:36.721Z,79.40
2023-05-08T03:43:06.456Z,79.65
2023-05-08T03:45:36.239Z,79.42
2023-05-08T03:48:05.352Z,79.50
2023-05-08T03:50:32.952Z,80.16
2023-05-08T03:53:00.958Z,79.75
2023-05-08T03:55:28.969Z,79.01
2023-05-08T03:58:02.604Z,79.50
2023-05-08T04:00:35.042Z,78.95
2023-05-08T04:03:15.224Z,79.29
2023-05-08T04:05:50.571Z,79.54
2023-05-08T04:08:21.556Z,79.62
2023-05-08T04:10:52.233Z,79.26
2023-05-08T04:13:25.238Z,79.59
2023-05-08T04:15:56.394Z,79.96
2023-05-08T04:18:27.345Z,79.25
2023-05-08T04:20:56.021Z,79.58
2023-05-08T04:23:24.481Z,79.28
2023-05-08T04:25:53.638Z,80.00
2023-05-08T04:28:22.606Z,81.20
2023-05-08T04:30:51.068Z,79.41
2023-05-08T04:33:19.351Z,79.37
2023-05-08T04:35:47.204Z,79.66
2023-05-08T04:38:16.201Z,80.23
2023-05-08T04:40:43.988Z,80.04
2023-05-08T04:43:11.806Z,79.62
2023-05-08T04:45:40.934Z,79.97
2023-05-08T04:48:08.577Z,81.06
2023-05-08T04:50:36.382Z,79.12
2023-05-08T04:53:04.259Z,79.03
2023-05-08T04:55:31.987Z,79.22
2023-05-08T04:57:59.685Z,78.67
2023-05-08T05:00:27.500Z,78.61
2023-05-08T05:02:56.713Z,78.79
2023-05-08T05:05:24.530Z,78.89
2023-05-08T05:07:55.112Z,78.69
2023-05-08T05:10:22.923Z,78.36
2023-05-08T05:12:50.664Z,78.32
2023-05-08T05:15:18.578Z,77.58
2023-05-08T05:17:46.348Z,78.23
2023-05-08T05:20:16.084Z,77.36
2023-05-08T05:22:44.303Z,77.23
2023-05-08T05:25:12.725Z,76.69
2023-05-08T05:27:40.716Z,76.37
2023-05-08T05:30:09.407Z,76.28
2023-05-08T05:32:38.305Z,76.58
2023-05-08T05:35:06.875Z,76.72
2023-05-08T05:37:36.038Z,76.32
2023-05-08T05:40:04.031Z,75.88
2023-05-08T05:42:31.738Z,75.54
2023-05-08T05:45:02.021Z,75.04
2023-05-08T05:47:29.846Z,74.99
2023-05-08T05:49:58.891Z,74.13
2023-05-08T05:52:26.723Z,73.97
2023-05-08T05:54:56.098Z,73.90
2023-05-08T05:57:23.929Z,73.61
2023-05-08T05:59:53.627Z,73.03
2023-05-08T06:02:22.607Z,73.31
2023-05-08T06:04:52.622Z,72.62
2023-05-08T06:07:21.181Z,72.87
2023-05-08T06:09:50.340Z,73.13
2023-05-08T06:12:19.506Z,72.49
2023-05-08T06:14:47.309Z,72.05
2023-05-08T06:17:15.198Z,72.17
2023-05-08T06:19:43.029Z,71.40
2023-05-08T06:22:10.814Z,71.36
2023-05-08T06:24:38.589Z,70.97
2023-05-08T06:27:06.374Z,70.74
2023-05-08T06:29:35.477Z,71.48
2023-05-08T06:32:03.307Z,70.79
2023-05-08T06:34:31.573Z,69.89
2023-05-08T06:36:59.390Z,69.78
2023-05-08T06:39:27.382Z,69.52
2023-05-08T06:41:55.209Z,69.63
2023-05-08T06:44:23.015Z,69.02
2023-05-08T06:46:52.217Z,69.18
2023-05-08T06:49:20.034Z,69.36
2023-05-08T06:51:47.809Z,69.95
2023-05-08T06:54:15.723Z,69.47
2023-05-08T06:56:43.464Z,69.36
2023-05-08T06:59:11.223Z,69.81
2023-05-08T07:01:39.000Z,69.69
2023-05-08T07:04:08.200Z,69.03
2023-05-08T07:06:36.051Z,69.54
2023-05-08T07:09:03.904Z,68.97
2023-05-08T07:11:31.720Z,68.79
2023-05-08T07:14:00.184Z,68.24
2023-05-08T07:16:28.014Z,68.65
2023-05-08T07:18:55.853Z,68.83
2023-05-08T07:21:25.099Z,68.23
2023-05-08T07:23:53.909Z,68.35
2023-05-08T07:26:21.571Z,68.13
2023-05-08T07:28:50.763Z,67.94
2023-05-08T07:31:18.614Z,67.47
2023-05-08T07:33:46.814Z,66.61
2023-05-08T07:36:16.522Z,65.16
2023-05-08T07:38:45.859Z,64.72
2023-05-08T07:41:13.723Z,63.82
2023-05-08T07:43:43.566Z,64.07
2023-05-08T07:46:17.668Z,63.29
2023-05-08T07:48:45.488Z,63.74
2023-05-08T07:51:13.373Z,62.69
2023-05-08T07:53:41.154Z,61.82
2023-05-08T07:56:10.425Z,60.89
2023-05-08T07:58:38.250Z,61.05
2023-05-08T08:01:06.056Z,61.07
2023-05-08T08:03:34.007Z,58.93
2023-05-08T08:06:01.998Z,58.43
2023-05-08T08:08:29.809Z,56.52
2023-05-08T08:10:57.571Z,57.80
2023-05-08T08:13:29.237Z,54.56
2023-05-08T08:15:57.214Z,52.91
2023-05-08T08:18:25.142Z,54.45
2023-05-08T08:20:52.903Z,53.55
2023-05-08T08:23:20.671Z,54.73
2023-05-08T08:25:48.481Z,56.01
2023-05-08T08:28:18.023Z,56.59
2023-05-08T08:30:47.235Z,57.70
2023-05-08T08:33:17.503Z,58.15
2023-05-08T08:35:46.650Z,58.11
2023-05-08T08:38:15.148Z,58.94
2023-05-08T08:40:43.572Z,58.58
2023-05-08T08:43:11.418Z,59.07
2023-05-08T08:45:39.461Z,58.62
2023-05-08T08:48:12.505Z,56.82
2023-05-08T08:50:43.858Z,57.44
2023-05-08T08:53:17.085Z,56.87
2023-05-08T08:55:49.659Z,57.57
2023-05-08T08:58:22.995Z,58.16
2023-05-08T09:00:51.364Z,58.30
2023-05-08T09:03:20.636Z,57.73
2023-05-08T09:05:49.279Z,57.32
2023-05-08T09:08:17.187Z,57.98
2023-05-08T09:10:44.976Z,56.87
2023-05-08T09:13:13.180Z,56.02
2023-05-08T09:15:41.067Z,55.83
2023-05-08T09:18:08.906Z,55.08
2023-05-08T09:20:44.345Z,54.49
2023-05-08T09:23:13.990Z,54.69
2023-05-08T09:25:48.835Z,54.26
2023-05-08T09:28:17.738Z,55.44
2023-05-08T09:30:53.366Z,56.20
2023-05-08T09:33:24.026Z,56.09
2023-05-08T09:35:53.251Z,56.29
2023-05-08T09:38:37.807Z,55.31
2023-05-08T09:41:09.976Z,57.15
2023-05-08T09:43:38.015Z,57.66
2023-05-08T09:46:23.486Z,57.40
2023-05-08T09:48:55.434Z,57.38
2023-05-08T09:51:25.000Z,57.12
2023-05-08T09:53:54.087Z,57.45
2023-05-08T09:56:37.937Z,57.98
2023-05-08T09:59:24.370Z,55.90
2023-05-08T10:01:52.245Z,56.44
2023-05-08T10:04:20.107Z,56.98
2023-05-08T10:06:58.732Z,57.01
2023-05-08T10:09:32.832Z,57.69
2023-05-08T10:12:07.349Z,57.61
2023-05-08T10:14:35.156Z,57.84
2023-05-08T10:17:08.900Z,58.09
2023-05-08T10:19:39.622Z,57.57
2023-05-08T10:22:12.563Z,56.32
2023-05-08T10:24:41.069Z,56.46
2023-05-08T10:27:13.539Z,57.46
2023-05-08T10:29:43.940Z,57.42
2023-05-08T10:32:14.278Z,57.26
2023-05-08T10:34:42.715Z,56.30
2023-05-08T10:37:11.989Z,56.39
2023-05-08T10:39:40.086Z,56.30
2023-05-08T10:42:12.105Z,56.21
2023-05-08T10:44:39.986Z,54.66
2023-05-08T10:47:12.768Z,54.97
2023-05-08T10:49:46.312Z,52.73
2023-05-08T10:52:21.125Z,52.31
2023-05-08T10:55:18.016Z,52.02
2023-05-08T10:58:10.638Z,50.07
2023-05-08T11:01:12.984Z,51.34
2023-05-08T11:03:43.034Z,53.25
2023-05-08T11:06:11.323Z,52.18
2023-05-08T11:08:51.680Z,51.61
2023-05-08T11:11:29.363Z,50.49
2023-05-08T11:14:03.866Z,52.35
2023-05-08T11:17:05.058Z,49.65
2023-05-08T11:19:32.900Z,51.01
2023-05-08T11:22:14.169Z,50.32
2023-05-08T11:24:50.310Z,49.01
2023-05-08T11:27:18.296Z,50.89
2023-05-08T11:29:46.077Z,49.62
2023-05-08T11:32:17.119Z,49.31
2023-05-08T11:34:49.262Z,47.97
2023-05-08T11:37:21.211Z,48.42
2023-05-08T11:39:50.432Z,47.64
2023-05-08T11:42:37.044Z,48.17
2023-05-08T11:45:07.001Z,48.31
2023-05-08T11:47:39.814Z,48.84
2023-05-08T11:50:09.628Z,48.48
2023-05-08T11:52:38.590Z,48.26
2023-05-08T11:55:09.539Z,49.13
2023-05-08T11:57:37.620Z,48.57
2023-05-08T12:00:06.857Z,48.60
2023-05-08T12:02:39.058Z,48.49
2023-05-08T12:05:08.035Z,48.65
2023-05-08T12:07:44.126Z,45.78
2023-05-08T12:10:13.980Z,48.16
2023-05-08T12:12:43.326Z,48.30
2023-05-08T12:15:13.100Z,48.44
2023-05-08T12:17:41.195Z,49.27
2023-05-08T12:20:14.361Z,48.37
2023-05-08T12:22:43.088Z,48.06
2023-05-08T12:25:14.153Z,48.78
2023-05-08T12:27:42.183Z,49.10
2023-05-08T12:30:11.839Z,49.02
2023-05-08T12:32:41.305Z,48.57
2023-05-08T12:35:10.638Z,48.71
2023-05-08T12:37:38.645Z,48.90
2023-05-08T12:40:07.902Z,49.61
2023-05-08T12:42:47.226Z,49.89
2023-05-08T12:45:19.440Z,50.63
2023-05-08T12:47:48.399Z,50.09
2023-05-08T12:50:17.105Z,50.39
2023-05-08T12:52:44.876Z,50.66
2023-05-08T12:55:23.429Z,50.96
2023-05-08T12:57:52.670Z,51.25
2023-05-08T13:00:20.683Z,50.17
2023-05-08T13:02:55.209Z,50.33
2023-05-08T13:05:23.494Z,51.12
2023-05-08T13:07:51.639Z,51.71
2023-05-08T13:10:22.264Z,50.88
2023-05-08T13:12:52.724Z,50.72
2023-05-08T13:15:21.217Z,51.49
2023-05-08T13:17:49.120Z,50.96
2023-05-08T13:20:16.969Z,51.55
2023-05-08T13:22:44.772Z,51.90
2023-05-08T13:25:12.741Z,52.43
2023-05-08T13:27:40.941Z,50.53
2023-05-08T13:30:11.702Z,49.85
2023-05-08T13:32:39.632Z,49.60
2023-05-08T13:35:08.207Z,49.28
2023-05-08T13:37:35.815Z,50.49
2023-05-08T13:40:04.461Z,49.55
2023-05-08T13:42:32.295Z,49.16
2023-05-08T13:45:00.123Z,49.93
2023-05-08T13:47:29.387Z,49.84
2023-05-08T13:49:57.252Z,49.02
2023-05-08T13:52:29.185Z,49.36
2023-05-08T13:54:58.020Z,49.29
2023-05-08T13:57:25.834Z,49.61
2023-05-08T13:59:53.669Z,49.77
2023-05-08T14:02:21.656Z,49.48
2023-05-08T14:04:50.945Z,50.41
2023-05-08T14:07:18.880Z,48.55
2023-05-08T14:09:46.822Z,48.71
2023-05-08T14:12:15.011Z,48.69
2023-05-08T14:14:44.679Z,48.51
2023-05-08T14:17:12.434Z,48.83
2023-05-08T14:19:40.363Z,49.27
2023-05-08T14:22:09.549Z,48.08
2023-05-08T14:24:37.319Z,49.15
2023-05-08T14:27:06.088Z,49.06
2023-05-08T14:29:34.208Z,49.04
2023-05-08T14:32:02.340Z,49.11
2023-05-08T14:34:30.236Z,49.13
2023-05-08T14:36:58.082Z,49.05
2023-05-08T14:39:27.276Z,48.85
2023-05-08T14:42:18.343Z,49.22
2023-05-08T14:44:42.915Z,49.28
2023-05-08T14:47:10.881Z,50.20
2023-05-08T14:49:39.022Z,50.55
2023-05-08T14:52:07.031Z,50.52
2023-05-08T14:54:36.449Z,49.61
2023-05-08T14:57:07.691Z,49.94
2023-05-08T14:59:35.966Z,49.98
2023-05-08T15:02:04.057Z,50.38
2023-05-08T15:04:32.125Z,49.82
2023-05-08T15:07:00.056Z,50.07
2023-05-08T15:09:28.020Z,49.85
2023-05-08T15:11:57.426Z,50.00
2023-05-08T15:14:25.192Z,50.08
2023-05-08T15:16:52.996Z,49.62
2023-05-08T15:19:20.975Z,49.52
2023-05-08T15:21:48.779Z,49.36
2023-05-08T15:24:16.569Z,48.92
2023-05-08T15:26:44.354Z,49.22
2023-05-08T15:29:13.509Z,49.60
2023-05-08T15:31:41.367Z,49.90
2023-05-08T15:34:09.352Z,50.45
2023-05-08T15:36:37.147Z,50.02
2023-05-08T15:39:05.146Z,50.75
2023-05-08T15:41:34.099Z,50.92
2023-05-08T15:44:01.981Z,50.91
2023-05-08T15:46:31.101Z,51.45
2023-05-08T15:49:00.489Z,51.96
2023-05-08T15:51:29.835Z,51.99
2023-05-08T15:53:57.606Z,52.51
2023-05-08T15:56:26.426Z,52.81
2023-05-08T15:58:54.914Z,51.95
2023-05-08T16:01:24.384Z,51.77
2023-05-08T16:03:53.591Z,52.44
2023-05-08T16:06:21.470Z,52.68
2023-05-08T16:08:49.323Z,52.76
2023-05-08T16:11:17.224Z,53.16
2023-05-08T16:13:45.001Z,52.77
2023-05-08T16:16:12.860Z,53.02
2023-05-08T16:18:40.669Z,53.33
2023-05-08T16:21:11.929Z,52.95
2023-05-08T16:23:43.323Z,53.33
2023-05-08T16:26:11.220Z,52.71
2023-05-08T16:28:39.261Z,52.50
2023-05-08T16:31:07.737Z,52.68
2023-05-08T16:33:35.826Z,53.13
2023-05-08T16:36:03.698Z,53.04
2023-05-08T16:38:33.157Z,53.14
2023-05-08T16:41:04.126Z,53.20
2023-05-08T16:43:32.301Z,53.35
2023-05-08T16:46:00.483Z,53.20
2023-05-08T16:48:28.996Z,53.41
2023-05-08T16:50:57.230Z,54.37
2023-05-08T16:53:27.146Z,54.77
2023-05-08T16:55:56.436Z,54.48
2023-05-08T16:58:25.938Z,54.94
2023-05-08T17:00:54.499Z,55.65
2023-05-08T17:03:22.921Z,55.50
2023-05-08T17:05:50.935Z,55.85
2023-05-08T17:08:18.759Z,55.73
2023-05-08T17:10:46.541Z,56.14
2023-05-08T17:13:15.774Z,56.34
2023-05-08T17:15:43.636Z,56.01
2023-05-08T17:18:11.505Z,56.38
2023-05-08T17:20:42.266Z,56.64
2023-05-08T17:23:10.419Z,56.91
2023-05-08T17:25:38.295Z,57.21
2023-05-08T17:28:06.279Z,57.31
2023-05-08T17:30:35.476Z,57.51
2023-05-08T17:33:03.823Z,58.17
2023-05-08T17:35:31.792Z,58.02
2023-05-08T17:37:59.658Z,58.83
2023-05-08T17:40:28.878Z,58.80
2023-05-08T17:42:56.847Z,59.14
2023-05-08T17:45:24.638Z,59.29
2023-05-08T17:47:53.892Z,59.76
2023-05-08T17:50:21.931Z,60.26
2023-05-08T17:52:49.793Z,60.66
2023-05-08T17:55:17.806Z,60.98
2023-05-08T17:57:45.873Z,60.94
2023-05-08T18:00:15.222Z,61.44
2023-05-08T18:02:43.303Z,61.73
2023-05-08T18:05:12.605Z,62.53
2023-05-08T18:07:40.933Z,62.18
2023-05-08T18:10:09.574Z,62.44
2023-05-08T18:12:37.431Z,62.46
2023-05-08T18:15:07.032Z,62.53
2023-05-08T18:17:34.968Z,62.46
2023-05-08T18:20:06.716Z,63.20
2023-05-08T18:22:36.038Z,62.88
2023-05-08T18:25:04.324Z,62.95
2023-05-08T18:27:34.336Z,63.95
2023-05-08T18:30:02.378Z,63.49
2023-05-08T18:32:30.237Z,63.72
2023-05-08T18:34:58.063Z,63.63
2023-05-08T18:37:25.889Z,63.92
2023-05-08T18:39:56.394Z,64.29
2023-05-08T18:42:24.152Z,64.56
2023-05-08T18:44:51.965Z,64.29
2023-05-08T18:47:20.803Z,65.00
2023-05-08T18:49:49.053Z,64.54
2023-05-08T18:52:16.952Z,65.02
2023-05-08T18:54:44.827Z,65.04
2023-05-08T18:57:13.954Z,65.35
2023-05-08T18:59:41.792Z,65.20
2023-05-08T19:02:09.642Z,65.05
2023-05-08T19:04:37.480Z,65.61
2023-05-08T19:07:05.319Z,65.53
2023-05-08T19:09:34.013Z,65.65
2023-05-08T19:12:01.910Z,66.14
2023-05-08T19:14:31.166Z,65.91
2023-05-08T19:16:59.052Z,66.21
2023-05-08T19:19:27.714Z,66.07
2023-05-08T19:21:55.582Z,66.15
2023-05-08T19:24:24.935Z,66.44
2023-05-08T19:26:52.760Z,66.57
2023-05-08T19:29:20.587Z,66.61
2023-05-08T19:31:49.854Z,66.71
2023-05-08T19:34:18.013Z,67.01
2023-05-08T19:36:45.856Z,66.73
2023-05-08T19:39:13.696Z,67.13
2023-05-08T19:41:41.520Z,67.04
2023-05-08T19:44:09.326Z,66.83
2023-05-08T19:46:37.282Z,67.07
2023-05-08T19:49:06.671Z,67.32
2023-05-08T19:51:34.536Z,67.20
2023-05-08T19:54:02.358Z,67.32
2023-05-08T19:56:30.187Z,67.46
2023-05-08T19:58:57.946Z,67.52
2023-05-08T20:01:25.897Z,67.58
2023-05-08T20:03:53.871Z,67.27
2023-05-08T20:06:23.277Z,67.67
2023-05-08T20:08:51.096Z,67.33
2023-05-08T20:11:18.942Z,67.70
2023-05-08T20:13:46.807Z,67.88
2023-05-08T20:16:14.781Z,68.32
2023-05-08T20:18:42.657Z,68.42
2023-05-08T20:21:10.502Z,67.89
2023-05-08T20:23:41.228Z,67.54
2023-05-08T20:26:09.123Z,68.15
2023-05-08T20:28:37.056Z,67.95
2023-05-08T20:31:05.015Z,68.30
2023-05-08T20:33:32.848Z,68.22
2023-05-08T20:38:28.624Z,68.00
2023-05-08T20:40:59.488Z,67.89
2023-05-08T20:43:29.068Z,68.42
2023-05-08T20:45:56.984Z,68.07
2023-05-08T20:48:24.783Z,68.10
2023-05-08T20:50:52.563Z,68.11
2023-05-08T20:53:23.225Z,68.48
2023-05-08T20:55:51.137Z,68.03
2023-05-08T20:58:20.292Z,68.50
2023-05-08T21:00:49.393Z,68.32
2023-05-08T21:03:17.231Z,69.09
2023-05-08T21:05:45.010Z,68.58
2023-05-08T21:08:12.962Z,68.82
2023-05-08T21:10:40.760Z,68.52
2023-05-08T21:13:08.615Z,68.85
2023-05-08T21:15:37.839Z,68.94
2023-05-08T21:18:05.853Z,68.84
2023-05-08T21:20:34.365Z,68.65
2023-05-08T21:23:02.208Z,68.69
2023-05-08T21:25:30.795Z,68.72
2023-05-08T21:28:01.322Z,69.04
2023-05-08T21:30:29.108Z,68.61
2023-05-08T21:32:58.274Z,69.04
2023-05-08T21:35:26.123Z,69.53
2023-05-08T21:37:54.742Z,69.59
2023-05-08T21:40:22.925Z,69.41
2023-05-08T21:42:50.858Z,68.95
2023-05-08T21:45:18.653Z,69.71
2023-05-08T21:47:46.449Z,69.61
2023-05-08T21:50:15.655Z,69.99
2023-05-08T21:52:43.501Z,69.98
2023-05-08T21:55:13.060Z,69.63
2023-05-08T21:57:41.079Z,69.92
2023-05-08T22:00:10.138Z,69.72
2023-05-08T22:02:37.846Z,70.38
2023-05-08T22:05:06.256Z,70.16
2023-05-08T22:07:35.399Z,69.64
2023-05-08T22:10:03.993Z,70.51
2023-05-08T22:12:31.851Z,70.09
2023-05-08T22:14:59.680Z,70.23
2023-05-08T22:17:29.954Z,70.05
2023-05-08T22:19:57.768Z,70.63
2023-05-08T22:22:25.593Z,70.64
2023-05-08T22:24:54.731Z,70.67
2023-05-08T22:27:24.348Z,70.71
2023-05-08T22:29:52.119Z,71.03
2023-05-08T22:32:19.928Z,70.29
2023-05-08T22:34:51.259Z,70.88
2023-05-08T22:37:19.011Z,70.68
2023-05-08T22:39:46.779Z,71.12
2023-05-08T22:42:16.456Z,70.96
2023-05-08T22:44:44.398Z,71.01
2023-05-08T22:47:13.034Z,71.08
2023-05-08T22:49:41.993Z,70.90
2023-05-08T22:52:13.460Z,71.06
2023-05-08T22:54:41.312Z,71.33
2023-05-08T22:57:09.053Z,71.67
2023-05-08T22:59:38.540Z,71.50
2023-05-08T23:02:06.504Z,71.82
2023-05-08T23:04:34.439Z,71.63
2023-05-08T23:07:03.042Z,71.92
2023-05-08T23:09:31.895Z,72.16
2023-05-08T23:11:59.724Z,72.26
2023-05-08T23:14:27.505Z,72.58
2023-05-08T23:16:56.645Z,72.71
2023-05-08T23:19:27.310Z,72.19
2023-05-08T23:21:55.057Z,72.16
2023-05-08T23:24:22.845Z,72.50
2023-05-08T23:26:52.431Z,73.11
2023-05-08T23:29:20.207Z,73.12
2023-05-08T23:31:47.996Z,72.89
2023-05-08T23:34:17.228Z,72.62
2023-05-08T23:36:44.755Z,73.65
2023-05-08T23:39:12.495Z,72.94
2023-05-08T23:41:40.331Z,73.16
2023-05-08T23:44:08.107Z,72.91
2023-05-08T23:46:35.919Z,72.78
2023-05-08T23:49:05.476Z,72.72
2023-05-08T23:51:34.845Z,73.51
2023-05-08T23:54:03.266Z,73.51
2023-05-08T23:56:31.089Z,73.37
2023-05-08T23:58:58.877Z,73.10
